Time;durP1;ratioP1;P1;durP2;ratioP2;P2;SDS_P1;SDS_P2;PMS_P1;PMS_P2;Temp;Humidity;BMP_temperature;BMP_pressure;BME280_temperature;BME280_humidity;BME280_pressure;Samples;Min_cycle;Max_cycle;Signal;HPM_P1;HPM_P2
2022/03/12 00:00:57;;;;;;;21.33;14.13;;;;;;;9.72;41.12;101217.63;5042252;28;20036;-65
2022/03/12 00:03:23;;;;;;;21.25;15.50;;;;;;;9.71;41.09;101213.22;5043532;28;20027;-65
2022/03/12 00:05:59;;;;;;;21.75;14.38;;;;;;;9.72;41.37;101212.97;5030588;28;20059;-65
2022/03/12 00:08:46;;;;;;;21.10;14.95;;;;;;;9.74;41.15;101216.38;5021697;28;20408;-65
2022/03/12 00:11:14;;;;;;;23.70;15.35;;;;;;;9.72;41.42;101214.88;5024387;28;20459;-66
2022/03/12 00:13:40;;;;;;;20.38;15.55;;;;;;;9.75;41.27;101218.06;5031198;28;20026;-65
2022/03/12 00:16:09;;;;;;;19.90;14.20;;;;;;;9.69;41.47;101213.44;5024705;28;20095;-65
2022/03/12 00:18:36;;;;;;;19.70;13.82;;;;;;;9.75;41.38;101218.06;5025223;28;20072;-65
2022/03/12 00:21:02;;;;;;;19.95;14.27;;;;;;;9.77;40.42;101220.56;5024101;28;20362;-65
2022/03/12 00:23:29;;;;;;;22.55;14.48;;;;;;;9.86;40.89;101227.50;5022319;28;20284;-65
2022/03/12 00:25:55;;;;;;;21.58;14.98;;;;;;;9.92;40.78;101228.53;5023890;28;20017;-65
2022/03/12 00:28:20;;;;;;;20.30;14.93;;;;;;;9.87;41.09;101230.03;5025041;28;20068;-65
2022/03/12 00:30:49;;;;;;;19.92;13.88;;;;;;;9.90;40.59;101237.00;5023860;28;20499;-65
2022/03/12 00:33:14;;;;;;;20.50;14.98;;;;;;;9.99;40.82;101232.13;5024039;28;20043;-66
2022/03/12 00:35:40;;;;;;;19.05;13.88;;;;;;;9.93;40.77;101228.31;5024362;28;20134;-66
2022/03/12 00:38:05;;;;;;;22.42;14.93;;;;;;;9.93;40.61;101236.53;5023649;28;20030;-65
2022/03/12 00:40:31;;;;;;;20.83;13.65;;;;;;;9.92;41.19;101242.25;5023534;28;20014;-66
2022/03/12 00:42:56;;;;;;;21.65;15.27;;;;;;;9.94;40.99;101238.25;5027171;28;20551;-66
2022/03/12 00:45:22;;;;;;;19.08;13.63;;;;;;;9.93;40.70;101239.28;5025664;28;20025;-65
2022/03/12 00:47:49;;;;;;;22.70;15.15;;;;;;;9.87;40.94;101246.47;5030915;28;20476;-65
2022/03/12 00:50:16;;;;;;;21.98;14.50;;;;;;;9.97;41.33;101247.94;5025913;28;20120;-66
2022/03/12 00:52:41;;;;;;;21.88;14.50;;;;;;;9.91;41.26;101251.53;5033571;28;20469;-66
2022/03/12 00:55:07;;;;;;;20.13;14.38;;;;;;;9.88;41.53;101242.69;5022841;28;20029;-66
2022/03/12 00:57:32;;;;;;;19.95;14.18;;;;;;;9.88;41.12;101239.97;5023555;28;20287;-66
2022/03/12 00:59:57;;;;;;;22.02;14.25;;;;;;;9.93;41.26;101246.69;5033047;28;20531;-66
2022/03/12 01:02:23;;;;;;;21.58;14.27;;;;;;;9.83;41.64;101245.25;5026226;28;20039;-66
2022/03/12 01:04:48;;;;;;;19.92;14.02;;;;;;;9.85;41.88;101251.34;5024466;28;20488;-66
2022/03/12 01:07:13;;;;;;;21.80;13.82;;;;;;;9.77;42.39;101248.84;5032286;28;20033;-66
2022/03/12 01:09:39;;;;;;;18.88;14.65;;;;;;;9.81;42.11;101249.25;5023540;28;20026;-65
2022/03/12 01:12:05;;;;;;;18.90;13.63;;;;;;;9.72;42.91;101254.13;5024276;28;20026;-66
2022/03/12 01:14:31;;;;;;;21.65;14.50;;;;;;;9.77;43.06;101257.06;5033782;28;20056;-66
2022/03/12 01:17:01;;;;;;;21.45;14.15;;;;;;;9.78;42.72;101252.41;5023043;28;20394;-65
2022/03/12 01:19:26;;;;;;;21.58;15.20;;;;;;;9.77;43.26;101251.56;5021164;28;20030;-65
2022/03/12 01:21:52;;;;;;;20.95;14.40;;;;;;;9.73;43.48;101257.72;5037044;28;20218;-66
2022/03/12 01:24:17;;;;;;;20.70;14.15;;;;;;;9.73;43.59;101263.19;5043081;28;20029;-65
2022/03/12 01:26:43;;;;;;;20.08;14.35;;;;;;;9.74;43.87;101260.25;5037479;28;20035;-65
2022/03/12 01:29:08;;;;;;;20.90;15.15;;;;;;;9.74;43.94;101249.28;5021471;28;20512;-66
2022/03/12 01:31:34;;;;;;;21.40;15.45;;;;;;;9.84;44.03;101266.13;5022625;28;20023;-65
2022/03/12 01:34:00;;;;;;;21.05;14.50;;;;;;;9.78;45.00;101266.13;5025622;28;20379;-65
2022/03/12 01:36:26;;;;;;;20.95;14.32;;;;;;;9.75;45.66;101266.59;5040726;28;20021;-66
2022/03/12 01:38:54;;;;;;;23.30;15.38;;;;;;;9.68;46.65;101266.59;5024829;28;20033;-66
2022/03/12 01:41:25;;;;;;;21.73;14.68;;;;;;;9.64;46.54;101273.56;5022990;28;20075;-66
2022/03/12 01:43:53;;;;;;;19.95;15.05;;;;;;;9.65;46.86;101266.19;5022951;28;20026;-66
2022/03/12 01:46:29;;;;;;;23.63;15.60;;;;;;;9.62;47.37;101273.75;5037717;28;20028;-66
2022/03/12 01:48:55;;;;;;;22.40;14.73;;;;;;;9.61;47.58;101271.25;5022558;28;20175;-66
2022/03/12 01:51:20;;;;;;;20.42;15.07;;;;;;;9.56;47.64;101274.63;5021619;28;20431;-66
2022/03/12 01:53:46;;;;;;;22.20;14.88;;;;;;;9.53;48.28;101280.56;5021050;28;20060;-65
2022/03/12 01:56:11;;;;;;;21.02;15.18;;;;;;;9.47;48.34;101278.66;5017019;28;20034;-66
2022/03/12 01:58:36;;;;;;;20.00;14.70;;;;;;;9.45;48.23;101279.94;5022754;28;20396;-65
2022/03/12 02:01:02;;;;;;;24.50;15.57;;;;;;;9.44;49.39;101286.47;5021771;28;20091;-65
2022/03/12 02:03:29;;;;;;;21.70;15.50;;;;;;;9.38;49.83;101287.28;5022149;28;20041;-66
2022/03/12 02:05:55;;;;;;;24.17;16.23;;;;;;;9.34;50.82;101281.41;5020704;28;20393;-66
2022/03/12 02:08:21;;;;;;;21.42;15.63;;;;;;;9.26;51.27;101279.72;5021535;28;20030;-66
2022/03/12 02:10:49;;;;;;;20.40;15.10;;;;;;;9.21;51.66;101275.94;5022196;28;20025;-66
2022/03/12 02:13:16;;;;;;;21.27;15.95;;;;;;;9.21;51.06;101276.78;5022811;28;20068;-66
2022/03/12 02:15:41;;;;;;;20.15;14.60;;;;;;;9.14;50.58;101270.47;5010943;28;20392;-66
2022/03/12 02:18:07;;;;;;;21.75;16.27;;;;;;;9.16;51.81;101267.50;5021469;28;20025;-65
2022/03/12 02:20:33;;;;;;;23.67;16.48;;;;;;;9.16;51.07;101272.97;5022209;28;20045;-65
2022/03/12 02:22:59;;;;;;;25.05;15.30;;;;;;;9.12;51.16;101264.31;5033609;28;20561;-65
2022/03/12 02:25:30;;;;;;;23.63;15.35;;;;;;;9.10;51.52;101280.16;5041337;28;20025;-65
2022/03/12 02:27:57;;;;;;;22.70;15.85;;;;;;;9.08;51.60;101277.63;5042548;28;20040;-66
2022/03/12 02:30:34;;;;;;;21.85;15.80;;;;;;;9.09;51.95;101276.56;5032924;28;20556;-65
2022/03/12 02:33:04;;;;;;;21.70;16.05;;;;;;;9.09;51.60;101267.50;5020707;28;20465;-65
2022/03/12 02:35:34;;;;;;;22.55;15.88;;;;;;;9.06;52.43;101276.97;5031351;28;20036;-66
2022/03/12 02:38:00;;;;;;;22.38;15.70;;;;;;;9.08;51.73;101271.31;5031320;28;20059;-66
2022/03/12 02:40:25;;;;;;;22.67;15.30;;;;;;;9.07;52.18;101269.59;5021222;28;20033;-65
2022/03/12 02:42:54;;;;;;;22.65;15.30;;;;;;;9.03;52.04;101271.09;5021413;28;20025;-66
2022/03/12 02:45:23;;;;;;;21.30;15.50;;;;;;;9.03;51.86;101276.56;5034315;28;20115;-65
2022/03/12 02:47:50;;;;;;;21.42;14.93;;;;;;;9.07;51.82;101289.66;5022829;28;20354;-66
2022/03/12 02:50:15;;;;;;;22.92;15.98;;;;;;;9.06;52.21;101287.94;5025465;28;20056;-65
2022/03/12 02:52:44;;;;;;;21.38;15.57;;;;;;;9.09;51.97;101294.91;5024061;28;20473;-66
2022/03/12 02:55:13;;;;;;;;;;;;;;;9.27;50.23;101289.63;5024423;28;20034;-66
2022/03/12 02:57:40;;;;;;;20.85;15.55;;;;;;;9.18;50.98;101287.34;5023385;28;20372;-65
2022/03/12 03:00:08;;;;;;;21.13;15.85;;;;;;;9.15;50.87;101291.31;5039574;28;20071;-65
2022/03/12 03:02:41;;;;;;;20.60;14.50;;;;;;;9.16;51.38;101293.00;5044218;28;20041;-65
2022/03/12 03:08:04;;;;;;;20.95;15.38;;;;;;;9.12;50.86;101299.94;5024798;28;20061;-65
2022/03/12 03:10:50;;;;;;;23.00;15.45;;;;;;;9.19;50.45;101299.97;5026078;28;20140;-66
2022/03/12 03:13:20;;;;;;;25.63;15.57;;;;;;;9.16;51.15;101303.13;5025878;28;20222;-66
2022/03/12 03:16:25;;;;;;;20.25;14.45;;;;;;;9.16;51.02;101303.97;5026039;28;20095;-66
2022/03/12 03:18:53;;;;;;;21.80;15.05;;;;;;;9.26;50.61;101296.16;5029478;28;20033;-66
2022/03/12 03:21:24;;;;;;;21.23;15.32;;;;;;;9.17;50.92;101291.94;5038727;28;20029;-66
2022/03/12 03:23:50;;;;;;;23.30;15.80;;;;;;;9.13;51.32;101306.31;5045395;28;20029;-66
2022/03/12 03:26:21;;;;;;;23.33;15.82;;;;;;;9.04;51.74;101317.47;5045619;28;20040;-66
2022/03/12 03:28:46;;;;;;;22.40;15.90;;;;;;;8.93;52.17;101312.59;5046195;28;20017;-66
2022/03/12 03:31:12;;;;;;;22.75;15.65;;;;;;;8.86;52.30;101319.09;5034726;28;20112;-66
2022/03/12 03:33:37;;;;;;;21.85;15.88;;;;;;;8.79;52.80;101310.88;5033258;28;20028;-66
2022/03/12 03:36:03;;;;;;;23.80;16.27;;;;;;;8.70;53.75;101312.97;5044330;28;20025;-66
2022/03/12 03:38:29;;;;;;;23.02;15.85;;;;;;;8.62;53.65;101312.31;5029769;28;20396;-66
2022/03/12 03:40:54;;;;;;;20.40;14.45;;;;;;;8.49;53.86;101310.38;5042053;28;20029;-66
2022/03/12 03:43:22;;;;;;;21.15;16.45;;;;;;;8.46;53.84;101332.69;5034380;28;20391;-66
2022/03/12 03:45:51;;;;;;;22.10;15.45;;;;;;;8.33;54.69;101327.97;5022038;28;20086;-66
2022/03/12 03:48:19;;;;;;;21.15;15.27;;;;;;;8.24;54.74;101330.03;5041656;28;20082;-66
2022/03/12 03:50:46;;;;;;;21.42;15.95;;;;;;;8.20;54.69;101326.00;5025803;28;20491;-66
2022/03/12 03:53:13;;;;;;;23.13;15.35;;;;;;;8.16;54.95;101335.69;5023335;28;20026;-66
2022/03/12 03:55:39;;;;;;;20.92;15.98;;;;;;;8.08;55.41;101333.13;5024939;28;20116;-66
2022/03/12 03:58:05;;;;;;;21.25;15.98;;;;;;;8.01;55.95;101344.03;5025183;28;20036;-66
2022/03/12 04:00:33;;;;;;;21.33;15.43;;;;;;;7.96;56.42;101340.22;5030103;28;20029;-66
2022/03/12 04:03:02;;;;;;;24.40;16.17;;;;;;;7.90;57.14;101341.84;5025234;28;20150;-66
2022/03/12 04:05:29;;;;;;;22.25;15.48;;;;;;;7.85;57.91;101346.22;5045126;28;20052;-66
2022/03/12 04:07:55;;;;;;;21.02;15.50;;;;;;;7.84;58.45;101341.81;5039033;28;20021;-66
2022/03/12 04:10:20;;;;;;;20.40;14.88;;;;;;;7.79;58.72;101343.25;5041566;28;20036;-66
2022/03/12 04:12:46;;;;;;;20.20;14.48;;;;;;;7.70;59.67;101346.34;5025087;28;20048;-66
2022/03/12 04:15:12;;;;;;;20.58;14.38;;;;;;;7.64;59.99;101349.88;5025177;28;20017;-66
2022/03/12 04:17:37;;;;;;;20.80;15.20;;;;;;;7.58;60.26;101358.88;5025465;28;20434;-66
2022/03/12 04:20:03;;;;;;;21.63;15.68;;;;;;;7.52;60.46;101360.53;5025254;28;20044;-66
2022/03/12 04:22:28;;;;;;;22.58;15.40;;;;;;;7.52;60.23;101358.63;5030702;28;20119;-66
2022/03/12 04:24:54;;;;;;;22.85;15.85;;;;;;;7.50;60.14;101359.84;5045212;28;20070;-66
2022/03/12 04:27:20;;;;;;;21.33;14.88;;;;;;;7.47;60.15;101357.53;5043579;28;20158;-66
2022/03/12 04:29:45;;;;;;;21.70;15.27;;;;;;;7.44;60.62;101360.66;5021196;28;20041;-66
2022/03/12 04:32:11;;;;;;;23.15;16.50;;;;;;;7.39;60.31;101357.66;5034741;28;20025;-66
2022/03/12 04:34:36;;;;;;;23.80;15.95;;;;;;;7.34;60.88;101360.16;5036529;28;20048;-66
2022/03/12 04:37:03;;;;;;;23.98;16.15;;;;;;;7.34;61.08;101360.16;5024732;28;20021;-65
2022/03/12 04:39:29;;;;;;;24.58;16.13;;;;;;;7.35;61.42;101357.25;5024185;28;20025;-66
2022/03/12 04:41:55;;;;;;;21.95;15.07;;;;;;;7.30;62.10;101359.72;5024262;28;20030;-65
2022/03/12 04:44:20;;;;;;;21.92;15.77;;;;;;;7.41;62.73;101355.59;5023379;28;20022;-66
2022/03/12 04:46:45;;;;;;;22.13;15.32;;;;;;;7.39;64.15;101363.13;5023492;28;20033;-66
2022/03/12 04:49:10;;;;;;;21.65;15.18;;;;;;;7.42;64.48;101362.75;5022395;28;20147;-66
2022/03/12 04:51:36;;;;;;;21.55;14.18;;;;;;;7.42;65.63;101362.75;5023416;28;20427;-65
2022/03/12 04:54:01;;;;;;;20.02;12.90;;;;;;;7.45;66.51;101373.28;5023653;28;20075;-66
2022/03/12 04:56:27;;;;;;;19.10;14.27;;;;;;;7.45;66.75;101371.41;5023714;28;20036;-66
2022/03/12 04:58:53;;;;;;;18.50;14.02;;;;;;;7.49;67.36;101369.09;5022830;28;20387;-65
2022/03/12 05:01:25;;;;;;;19.45;13.85;;;;;;;7.46;67.21;101366.78;5029719;28;20178;-66
2022/03/12 05:03:50;;;;;;;22.20;15.02;;;;;;;7.43;67.47;101368.00;5027392;28;20077;-66
2022/03/12 05:06:17;;;;;;;20.15;13.85;;;;;;;7.38;67.34;101377.84;5022741;28;20060;-66
2022/03/12 05:08:42;;;;;;;21.45;15.90;;;;;;;7.28;67.31;101384.47;5026438;28;20503;-66
2022/03/12 05:11:08;;;;;;;20.65;15.38;;;;;;;7.20;67.75;101381.91;5031643;28;20039;-66
2022/03/12 05:13:33;;;;;;;23.63;14.60;;;;;;;7.11;67.72;101380.34;5039085;28;20430;-66
2022/03/12 05:16:03;;;;;;;19.92;14.32;;;;;;;7.07;68.12;101387.22;5023345;28;20510;-65
2022/03/12 05:18:30;;;;;;;21.67;15.48;;;;;;;7.07;68.37;101375.44;5023123;28;20029;-66
2022/03/12 05:20:55;;;;;;;21.35;15.43;;;;;;;7.00;68.27;101381.69;5025396;28;20100;-66
2022/03/12 05:23:21;;;;;;;22.50;15.50;;;;;;;6.97;68.50;101381.22;5024550;28;20035;-66
2022/03/12 05:25:47;;;;;;;24.45;16.25;;;;;;;6.92;68.63;101390.00;5023351;28;20037;-66
2022/03/12 05:28:23;;;;;;;22.10;15.02;;;;;;;6.94;69.05;101395.25;5023234;28;20484;-66
2022/03/12 05:30:49;;;;;;;24.98;16.20;;;;;;;6.90;68.87;101407.63;5021221;28;20052;-66
2022/03/12 05:33:17;;;;;;;21.75;16.40;;;;;;;6.85;69.45;101404.63;5015899;28;20140;-66
2022/03/12 05:35:44;;;;;;;24.13;16.10;;;;;;;6.87;69.73;101408.00;5042154;28;20490;-66
2022/03/12 05:38:11;;;;;;;22.38;16.38;;;;;;;6.85;69.89;101419.13;5032560;28;20040;-66
2022/03/12 05:40:38;;;;;;;20.90;15.77;;;;;;;6.83;70.10;101413.00;5026523;28;20476;-66
2022/03/12 05:43:12;;;;;;;21.10;15.73;;;;;;;6.82;70.59;101424.97;5034230;28;20098;-66
2022/03/12 05:45:38;;;;;;;23.23;16.20;;;;;;;6.82;70.66;101421.38;5040240;28;20060;-66
2022/03/12 05:48:09;;;;;;;24.50;15.27;;;;;;;6.78;71.23;101420.06;5034196;28;20057;-66
2022/03/12 05:50:38;;;;;;;22.75;16.10;;;;;;;6.78;71.47;101420.06;5023147;28;20033;-66
2022/03/12 05:53:08;;;;;;;23.75;16.50;;;;;;;6.77;71.90;101427.41;5023961;28;20052;-66
2022/03/12 05:55:36;;;;;;;22.08;15.40;;;;;;;6.80;72.37;101420.75;5038685;28;20029;-66
2022/03/12 05:58:01;;;;;;;19.80;14.80;;;;;;;6.80;72.49;101420.75;5022618;28;20640;-66
2022/03/12 06:00:27;;;;;;;22.85;15.30;;;;;;;6.73;72.58;101420.66;5023899;28;20021;-66
2022/03/12 06:02:52;;;;;;;24.08;15.85;;;;;;;6.69;73.54;101422.94;5041927;28;20140;-66
2022/03/12 06:05:20;;;;;;;22.02;15.35;;;;;;;6.72;73.45;101435.34;5041697;28;20064;-66
2022/03/12 06:07:46;;;;;;;23.45;15.00;;;;;;;6.70;73.66;101442.88;5035355;28;20029;-66
2022/03/12 06:10:31;;;;;;;20.58;14.38;;;;;;;6.72;73.43;101433.44;5022411;28;20030;-66
2022/03/12 06:12:58;;;;;;;22.13;14.75;;;;;;;6.74;74.09;101425.94;5039386;28;20476;-66
2022/03/12 06:15:25;;;;;;;22.83;15.45;;;;;;;6.77;74.31;101430.16;5022047;28;20018;-66
2022/03/12 06:17:51;;;;;;;23.92;15.75;;;;;;;6.78;74.18;101431.00;5020971;28;20033;-66
2022/03/12 06:20:20;;;;;;;22.75;15.85;;;;;;;6.83;74.43;101428.53;5022581;28;20048;-66
2022/03/12 06:22:45;;;;;;;25.23;15.85;;;;;;;6.84;74.59;101432.94;5020985;28;20260;-66
2022/03/12 06:25:14;;;;;;;23.20;15.52;;;;;;;6.86;74.31;101439.94;5021926;28;20152;-66
2022/03/12 06:27:42;;;;;;;24.42;14.88;;;;;;;6.91;74.51;101445.66;5025719;28;20025;-66
2022/03/12 06:30:09;;;;;;;24.67;16.05;;;;;;;6.94;74.52;101441.69;5022379;28;20458;-66
2022/03/12 06:32:36;;;;;;;24.37;16.07;;;;;;;7.00;74.89;101444.50;5021854;28;20450;-65
2022/03/12 06:35:02;;;;;;;24.80;16.02;;;;;;;7.06;74.70;101448.34;5040648;28;20037;-66
2022/03/12 06:37:27;;;;;;;22.52;15.20;;;;;;;7.07;74.98;101452.78;5021049;28;20279;-65
2022/03/12 06:39:55;;;;;;;25.25;15.15;;;;;;;7.15;75.33;101446.34;5020935;28;20128;-66
2022/03/12 06:42:21;;;;;;;24.38;15.85;;;;;;;7.19;75.64;101453.09;5022546;28;20075;-66
2022/03/12 06:44:46;;;;;;;22.17;14.50;;;;;;;7.27;75.38;101456.56;5030767;28;20558;-66
2022/03/12 06:47:12;;;;;;;22.25;14.80;;;;;;;7.37;75.81;101449.94;5024397;28;20029;-66
2022/03/12 06:49:38;;;;;;;21.65;14.95;;;;;;;7.45;76.23;101450.66;5025639;28;20424;-66
2022/03/12 06:52:04;;;;;;;21.83;14.20;;;;;;;7.50;76.11;101452.78;5018160;28;20083;-66
2022/03/12 06:54:30;;;;;;;21.35;14.27;;;;;;;7.55;76.62;101458.50;5020264;28;20098;-66
2022/03/12 06:56:55;;;;;;;23.67;14.48;;;;;;;7.60;76.45;101469.69;5027242;28;20025;-65
2022/03/12 06:59:21;;;;;;;23.38;15.20;;;;;;;7.68;76.26;101475.03;5021150;28;20021;-66
2022/03/12 07:01:46;;;;;;;24.83;15.75;;;;;;;7.81;76.12;101471.59;5023340;28;20468;-66
2022/03/12 07:04:11;;;;;;;22.95;15.77;;;;;;;7.88;76.69;101477.97;5025217;28;20041;-66
2022/03/12 07:06:37;;;;;;;25.13;15.35;;;;;;;7.99;76.22;101488.34;5028609;28;20491;-65
2022/03/12 07:09:03;;;;;;;25.02;15.32;;;;;;;8.07;76.09;101476.44;5021722;28;20080;-65
2022/03/12 07:11:32;;;;;;;25.15;15.80;;;;;;;8.16;75.76;101477.97;5022030;28;20063;-65
2022/03/12 07:13:58;;;;;;;27.90;18.48;;;;;;;8.23;75.73;101483.50;5022123;28;20026;-66
2022/03/12 07:16:23;;;;;;;25.13;16.92;;;;;;;8.28;75.54;101484.56;5021478;28;20030;-65
2022/03/12 07:18:49;;;;;;;26.55;18.00;;;;;;;8.32;75.22;101482.28;5020026;28;20091;-65
2022/03/12 07:21:14;;;;;;;28.58;19.15;;;;;;;8.45;75.19;101489.75;5020861;28;20026;-65
2022/03/12 07:23:39;;;;;;;27.42;18.13;;;;;;;8.45;75.25;101484.28;5020831;28;20164;-65
2022/03/12 07:26:05;;;;;;;29.80;17.30;;;;;;;8.53;75.09;101484.13;5021696;28;20024;-64
2022/03/12 07:28:32;;;;;;;26.10;16.75;;;;;;;8.52;75.30;101494.25;5021075;28;20049;-65
2022/03/12 07:30:58;;;;;;;27.85;16.85;;;;;;;8.55;74.87;101498.47;5020319;28;20116;-65
2022/03/12 07:33:23;;;;;;;28.55;17.98;;;;;;;8.57;75.25;101490.91;5025733;28;20104;-66
2022/03/12 07:35:48;;;;;;;26.90;16.52;;;;;;;8.64;75.35;101501.88;5032136;28;20021;-66
2022/03/12 07:38:13;;;;;;;33.55;19.58;;;;;;;8.75;74.71;101507.63;5023091;28;20357;-65
2022/03/12 07:40:40;;;;;;;29.25;18.58;;;;;;;8.85;74.35;101499.03;5025156;28;20025;-66
2022/03/12 07:43:05;;;;;;;33.10;19.55;;;;;;;9.01;74.35;101514.28;5034185;28;20055;-66
2022/03/12 07:45:31;;;;;;;33.28;19.23;;;;;;;9.24;73.38;101523.03;5044562;28;20446;-65
2022/03/12 07:47:56;;;;;;;30.55;18.85;;;;;;;9.46;72.97;101518.25;5029002;28;20033;-66
2022/03/12 07:50:22;;;;;;;34.25;19.63;;;;;;;9.54;72.06;101525.44;5041241;28;20509;-66
2022/03/12 07:52:47;;;;;;;30.38;18.73;;;;;;;9.64;71.87;101527.78;5035266;28;20033;-66
2022/03/12 07:55:16;;;;;;;28.70;18.40;;;;;;;9.69;71.92;101539.00;5022684;28;20312;-66
2022/03/12 07:57:41;;;;;;;32.83;19.83;;;;;;;9.77;71.61;101534.13;5026663;28;20518;-66
2022/03/12 08:00:10;;;;;;;31.80;19.00;;;;;;;9.92;70.88;101533.09;5025161;28;20048;-66
2022/03/12 08:02:36;;;;;;;32.17;18.80;;;;;;;10.03;70.64;101532.47;5019132;28;20037;-66
2022/03/12 08:05:01;;;;;;;28.10;17.58;;;;;;;10.17;69.79;101527.81;5023315;28;20037;-66
2022/03/12 08:07:28;;;;;;;30.77;17.42;;;;;;;10.28;69.98;101535.44;5023264;28;20049;-66
2022/03/12 08:09:56;;;;;;;24.50;14.82;;;;;;;10.38;69.76;101533.13;5024359;28;20068;-66
2022/03/12 08:12:30;;;;;;;26.63;15.80;;;;;;;10.69;68.91;101532.44;5022978;28;20029;-66
2022/03/12 08:14:57;;;;;;;24.55;15.55;;;;;;;11.08;67.82;101536.97;5024037;28;20025;-66
2022/03/12 08:17:24;;;;;;;25.37;15.33;;;;;;;11.36;66.54;101542.16;5023259;28;20025;-66
2022/03/12 08:19:50;;;;;;;23.83;14.90;;;;;;;11.47;66.22;101548.03;5023743;28;20484;-66
2022/03/12 08:22:15;;;;;;;25.15;14.77;;;;;;;11.55;65.59;101545.84;5022968;28;20032;-66
2022/03/12 08:24:40;;;;;;;24.77;14.48;;;;;;;11.59;65.61;101544.34;5023510;28;20444;-66
2022/03/12 08:27:07;;;;;;;20.70;14.77;;;;;;;11.75;65.65;101547.66;5023792;28;20021;-66
2022/03/12 08:29:33;;;;;;;16.33;11.35;;;;;;;11.88;64.78;101547.59;5023929;28;20139;-66
2022/03/12 08:31:58;;;;;;;14.52;9.65;;;;;;;11.99;64.12;101546.03;5022889;28;20163;-66
2022/03/12 08:34:24;;;;;;;18.85;11.60;;;;;;;12.19;63.35;101560.50;5023467;28;20395;-66
2022/03/12 08:36:49;;;;;;;16.67;9.52;;;;;;;12.55;62.82;101556.16;5022620;28;20044;-67
2022/03/12 08:39:15;;;;;;;13.68;9.20;;;;;;;12.81;62.01;101561.41;5023262;28;20029;-66
2022/03/12 08:41:41;;;;;;;14.68;10.20;;;;;;;12.81;61.43;101566.91;5023561;28;20430;-66
2022/03/12 08:44:08;;;;;;;14.48;8.98;;;;;;;13.12;60.88;101565.09;5019253;28;20022;-66
2022/03/12 08:46:35;;;;;;;13.73;8.30;;;;;;;13.07;60.20;101567.69;5003644;28;20226;-66
2022/03/12 08:49:01;;;;;;;14.82;9.05;;;;;;;13.29;60.33;101568.13;5003523;28;20269;-66
2022/03/12 08:51:26;;;;;;;11.15;7.78;;;;;;;13.39;59.18;101574.78;5002219;28;20026;-66
2022/03/12 08:53:52;;;;;;;12.30;8.77;;;;;;;13.21;59.42;101556.31;5003400;28;20034;-66
2022/03/12 08:56:17;;;;;;;12.80;8.60;;;;;;;13.19;59.82;101566.72;5003078;28;20017;-66
2022/03/12 08:58:42;;;;;;;11.35;7.43;;;;;;;13.43;59.36;101567.72;5003798;28;20034;-66
2022/03/12 09:01:08;;;;;;;12.75;8.02;;;;;;;13.79;58.30;101571.47;5002865;28;20349;-66
2022/03/12 09:03:35;;;;;;;11.65;7.68;;;;;;;13.84;57.92;101579.03;5003660;28;20030;-66
2022/03/12 09:06:00;;;;;;;12.32;8.15;;;;;;;13.65;58.35;101583.78;5002685;28;20072;-66
2022/03/12 09:08:25;;;;;;;12.60;8.65;;;;;;;13.32;58.98;101571.25;5002268;28;20026;-66
2022/03/12 09:10:51;;;;;;;12.05;8.27;;;;;;;13.20;59.40;101578.59;5003428;28;20455;-66
2022/03/12 09:13:17;;;;;;;13.30;8.75;;;;;;;13.27;59.16;101573.84;5002915;28;20032;-66
2022/03/12 09:15:43;;;;;;;12.65;7.65;;;;;;;13.28;59.20;101578.31;5002495;28;20106;-66
2022/03/12 09:18:09;;;;;;;12.20;8.40;;;;;;;13.49;59.63;101577.00;5002845;28;20058;-66
2022/03/12 09:20:37;;;;;;;13.80;8.25;;;;;;;13.57;59.30;101578.56;5002561;28;20538;-66
2022/03/12 09:23:02;;;;;;;14.07;7.70;;;;;;;13.72;58.19;101587.28;5002758;28;20229;-66
2022/03/12 09:25:28;;;;;;;12.23;7.43;;;;;;;13.59;58.47;101576.44;5002563;28;20037;-66
2022/03/12 09:27:53;;;;;;;12.93;7.65;;;;;;;13.43;58.69;101583.41;5001871;28;20101;-66
2022/03/12 09:30:19;;;;;;;11.52;6.57;;;;;;;13.23;58.98;101587.28;5002419;28;20551;-66
2022/03/12 09:32:44;;;;;;;10.23;5.97;;;;;;;13.10;59.29;101589.31;5007494;28;20426;-67
2022/03/12 09:35:09;;;;;;;12.65;6.40;;;;;;;13.11;59.40;101586.31;5021540;28;20160;-66
2022/03/12 09:37:36;;;;;;;11.50;6.80;;;;;;;13.28;59.24;101577.44;5022602;28;20025;-66
2022/03/12 09:40:04;;;;;;;13.43;6.60;;;;;;;13.59;58.03;101587.47;5022829;28;20044;-66
2022/03/12 09:42:30;;;;;;;12.73;6.47;;;;;;;13.75;56.41;101586.81;5021947;28;20021;-66
2022/03/12 09:44:59;;;;;;;10.55;5.90;;;;;;;13.93;56.33;101588.69;5022138;28;20247;-66
2022/03/12 09:47:25;;;;;;;9.60;5.53;;;;;;;13.72;55.77;101592.81;5020477;28;20424;-66
2022/03/12 09:49:51;;;;;;;12.38;5.38;;;;;;;13.87;55.05;101584.09;5017848;28;20036;-66
2022/03/12 09:52:17;;;;;;;10.82;5.63;;;;;;;13.81;55.15;101585.88;5021492;28;20052;-67
2022/03/12 09:54:43;;;;;;;13.00;5.68;;;;;;;13.97;55.33;101582.44;5022077;28;20036;-66
2022/03/12 09:57:08;;;;;;;16.13;5.00;;;;;;;13.91;54.41;101577.03;5020965;28;20037;-66
2022/03/12 09:59:34;;;;;;;16.55;5.80;;;;;;;14.00;53.92;101587.53;5021297;28;20041;-66
2022/03/12 10:02:00;;;;;;;11.18;5.68;;;;;;;14.16;53.15;101587.91;5021281;28;20029;-66
2022/03/12 10:04:26;;;;;;;13.55;5.35;;;;;;;14.24;52.66;101595.84;5021727;28;20052;-66
2022/03/12 10:06:51;;;;;;;11.60;4.93;;;;;;;14.12;52.86;101600.50;5020860;28;20029;-66
2022/03/12 10:09:17;;;;;;;10.25;4.38;;;;;;;13.82;53.88;101609.66;5021669;28;20041;-67
2022/03/12 10:11:42;;;;;;;12.07;4.10;;;;;;;13.75;53.56;101600.63;5022129;28;20048;-67
2022/03/12 10:14:08;;;;;;;10.80;3.95;;;;;;;13.91;53.34;101599.97;5019539;28;20029;-67
2022/03/12 10:16:34;;;;;;;13.25;4.20;;;;;;;14.43;51.70;101605.75;5020154;28;20018;-66
2022/03/12 10:18:59;;;;;;;10.75;3.67;;;;;;;14.85;51.25;101600.19;5021502;28;20037;-66
2022/03/12 10:21:25;;;;;;;10.82;3.65;;;;;;;15.45;49.16;101604.53;5019500;28;20041;-66
2022/03/12 10:23:51;;;;;;;11.57;3.97;;;;;;;16.02;48.47;101596.28;5020932;28;20379;-66
2022/03/12 10:26:16;;;;;;;11.23;4.55;;;;;;;16.58;46.39;101600.88;5020297;28;20039;-66
2022/03/12 10:28:41;;;;;;;11.45;3.85;;;;;;;16.57;44.83;101609.44;5021186;28;20021;-66
2022/03/12 10:31:07;;;;;;;10.98;3.63;;;;;;;16.32;46.29;101607.94;5021259;28;20026;-66
2022/03/12 10:33:33;;;;;;;11.80;3.80;;;;;;;15.55;47.19;101602.81;5020768;28;20400;-66
2022/03/12 10:36:13;;;;;;;12.05;3.97;;;;;;;15.07;48.88;101610.63;5019447;28;20143;-66
2022/03/12 10:38:41;;;;;;;13.27;4.13;;;;;;;14.82;48.49;101610.88;5020957;28;20387;-66
2022/03/12 10:41:07;;;;;;;12.68;4.38;;;;;;;14.89;49.84;101609.66;5021413;28;20029;-66
2022/03/12 10:43:50;;;;;;;12.93;4.40;;;;;;;15.15;49.21;101610.22;5020246;28;20068;-66
2022/03/12 10:46:35;;;;;;;11.60;4.10;;;;;;;15.14;48.35;101614.09;5018728;28;20483;-66
2022/03/12 10:49:02;;;;;;;10.82;3.83;;;;;;;15.65;48.05;101617.97;5020896;28;20025;-66
2022/03/12 10:51:31;;;;;;;12.03;4.70;;;;;;;16.71;45.86;101604.38;5020166;28;20773;-66
2022/03/12 10:54:15;;;;;;;8.95;4.18;;;;;;;17.49;43.51;101602.50;5020851;28;20476;-65
2022/03/12 10:56:48;;;;;;;9.68;3.40;;;;;;;18.46;41.52;101601.59;5018626;28;20052;-65
2022/03/12 10:59:19;;;;;;;11.80;3.78;;;;;;;19.19;38.93;101597.13;5020759;28;20028;-65
2022/03/12 11:02:00;;;;;;;11.05;3.97;;;;;;;19.69;39.56;101595.72;5019664;28;20049;-65
2022/03/12 11:04:34;;;;;;;10.90;3.63;;;;;;;19.80;37.02;101598.53;5020360;28;20045;-65
2022/03/12 11:07:19;;;;;;;9.93;3.42;;;;;;;20.15;36.94;101592.19;5019655;28;20030;-65
2022/03/12 11:09:45;;;;;;;8.82;3.50;;;;;;;20.07;35.77;101601.97;5021763;28;20053;-65
2022/03/12 11:12:29;;;;;;;8.07;3.80;;;;;;;19.61;38.40;101600.97;5023232;28;20025;-65
2022/03/12 11:15:06;;;;;;;10.18;3.38;;;;;;;19.44;38.27;101609.50;5012520;28;20037;-65
2022/03/12 11:17:50;;;;;;;9.32;3.78;;;;;;;20.00;37.90;101601.38;5022059;28;20498;-64
2022/03/12 11:20:28;;;;;;;9.45;3.38;;;;;;;20.16;35.59;101607.81;5024068;28;20021;-65